Time;durP1;ratioP1;P1;durP2;ratioP2;P2;SDS_P1;SDS_P2;PMS_P1;PMS_P2;Temp;Humidity;BMP_temperature;BMP_pressure;BME280_temperature;BME280_humidity;BME280_pressure;Samples;Min_cycle;Max_cycle;Signal;HPM_P1;HPM_P2
2023/03/03 00:00:04;;;;;;;;;;;20.40;52.70;;;;;;1530264;76;753;-63
2023/03/03 00:02:06;;;;;;;;;;;20.40;52.90;;;;;;1524885;76;1633;-63
2023/03/03 00:04:08;;;;;;;;;;;20.30;52.80;;;;;;1520355;76;777;-63
2023/03/03 00:06:11;;;;;;;;;;;20.30;52.90;;;;;;1533662;76;723;-64
2023/03/03 00:08:13;;;;;;;;;;;20.40;52.80;;;;;;1509849;76;666;-63
2023/03/03 00:10:14;;;;;;;;;;;20.40;52.70;;;;;;1518631;76;1942;-63
2023/03/03 00:12:26;;;;;;;;;;;20.40;52.70;;;;;;1522356;76;1053;-64
2023/03/03 00:14:28;;;;;;;;;;;20.30;52.60;;;;;;1523788;76;733;-64
2023/03/03 00:16:37;;;;;;;;;;;20.30;52.70;;;;;;1539452;76;1674;-63
2023/03/03 00:18:40;;;;;;;;;;;20.30;52.80;;;;;;1523761;76;673;-63
2023/03/03 00:20:43;;;;;;;;;;;20.40;52.80;;;;;;1528585;76;1157;-63
2023/03/03 00:22:45;;;;;;;;;;;20.30;52.80;;;;;;1528841;76;1008;-63
2023/03/03 00:24:48;;;;;;;;;;;20.30;52.80;;;;;;1516458;76;678;-64
2023/03/03 00:26:51;;;;;;;;;;;20.40;52.80;;;;;;1523419;76;690;-64
2023/03/03 00:28:53;;;;;;;;;;;20.30;53.10;;;;;;1517122;76;1907;-65
2023/03/03 00:30:56;;;;;;;;;;;20.20;53.20;;;;;;1533365;76;1159;-63
2023/03/03 00:32:58;;;;;;;;;;;20.20;53.30;;;;;;1532161;76;711;-64
2023/03/03 00:35:04;;;;;;;;;;;20.10;53.60;;;;;;1527413;76;689;-64
2023/03/03 00:37:08;;;;;;;;;;;20.10;53.70;;;;;;1523403;76;1211;-64
2023/03/03 00:39:27;;;;;;;;;;;20.10;54.00;;;;;;1531700;76;1867;-64
2023/03/03 00:41:29;;;;;;;;;;;19.90;53.90;;;;;;1527589;76;1182;-64
2023/03/03 00:43:32;;;;;;;;;;;19.90;54.10;;;;;;1520591;76;1526;-64
2023/03/03 00:45:36;;;;;;;;;;;20.00;53.90;;;;;;1534067;76;996;-64
2023/03/03 00:47:38;;;;;;;;;;;20.00;53.80;;;;;;1511555;76;1867;-64
2023/03/03 00:49:40;;;;;;;;;;;20.00;53.90;;;;;;1528311;76;1929;-63
2023/03/03 00:51:42;;;;;;;;;;;19.90;54.20;;;;;;1521881;76;1111;-63
2023/03/03 00:53:43;;;;;;;;;;;19.90;54.30;;;;;;1519466;76;702;-63
2023/03/03 00:55:46;;;;;;;;;;;19.90;54.60;;;;;;1526864;76;703;-63
2023/03/03 00:57:48;;;;;;;;;;;19.80;54.60;;;;;;1526846;76;1656;-63
2023/03/03 00:59:50;;;;;;;;;;;19.80;54.70;;;;;;1521203;76;688;-63
2023/03/03 01:01:53;;;;;;;;;;;19.80;54.70;;;;;;1526908;76;1131;-64
2023/03/03 01:03:55;;;;;;;;;;;19.80;54.80;;;;;;1518753;76;700;-64
2023/03/03 01:05:56;;;;;;;;;;;19.80;55.00;;;;;;1518544;76;678;-65
2023/03/03 01:07:58;;;;;;;;;;;19.80;54.90;;;;;;1525816;76;786;-65
2023/03/03 01:10:00;;;;;;;;;;;19.90;54.80;;;;;;1530015;76;1940;-63
2023/03/03 01:12:02;;;;;;;;;;;19.90;55.00;;;;;;1522091;76;1577;-66
2023/03/03 01:14:04;;;;;;;;;;;19.90;54.70;;;;;;1514951;76;706;-64
2023/03/03 01:16:06;;;;;;;;;;;19.80;54.90;;;;;;1522740;76;782;-65
2023/03/03 01:18:09;;;;;;;;;;;19.80;55.10;;;;;;1524732;76;667;-64
2023/03/03 01:20:11;;;;;;;;;;;19.70;55.10;;;;;;1522909;76;668;-63
2023/03/03 01:22:13;;;;;;;;;;;19.70;55.30;;;;;;1523599;76;1176;-64
2023/03/03 01:24:15;;;;;;;;;;;19.70;55.20;;;;;;1525173;76;757;-63
2023/03/03 01:26:17;;;;;;;;;;;19.60;55.20;;;;;;1521635;76;1567;-65
2023/03/03 01:28:19;;;;;;;;;;;19.60;55.60;;;;;;1518730;76;670;-64
2023/03/03 01:30:20;;;;;;;;;;;19.60;55.50;;;;;;1521509;76;1960;-64
2023/03/03 01:32:23;;;;;;;;;;;19.60;55.20;;;;;;1548387;76;1153;-65
2023/03/03 01:34:25;;;;;;;;;;;19.70;55.30;;;;;;1526163;76;730;-67
2023/03/03 01:36:27;;;;;;;;;;;19.70;55.10;;;;;;1521650;76;750;-64
2023/03/03 01:38:29;;;;;;;;;;;19.70;55.30;;;;;;1526311;76;713;-64
2023/03/03 01:40:31;;;;;;;;;;;19.70;55.50;;;;;;1527706;76;1587;-65
2023/03/03 01:42:33;;;;;;;;;;;19.70;55.70;;;;;;1533553;76;1136;-63
2023/03/03 01:44:35;;;;;;;;;;;19.70;55.50;;;;;;1523309;76;698;-63
2023/03/03 01:46:53;;;;;;;;;;;19.70;56.00;;;;;;1525517;76;719;-64
2023/03/03 01:49:01;;;;;;;;;;;19.60;55.60;;;;;;1523792;76;695;-64
2023/03/03 01:51:04;;;;;;;;;;;19.80;55.40;;;;;;1536392;76;1935;-64
2023/03/03 01:53:06;;;;;;;;;;;19.80;55.20;;;;;;1519170;76;1810;-64
2023/03/03 01:55:10;;;;;;;;;;;19.90;55.20;;;;;;1523448;76;1547;-66
2023/03/03 01:57:13;;;;;;;;;;;19.90;55.10;;;;;;1524807;76;2029;-64
2023/03/03 01:59:19;;;;;;;;;;;19.90;55.00;;;;;;1530729;76;1955;-64
2023/03/03 02:01:22;;;;;;;;;;;19.90;54.90;;;;;;1523114;76;1140;-64
2023/03/03 02:03:23;;;;;;;;;;;19.90;54.90;;;;;;1515713;76;736;-65
2023/03/03 02:05:25;;;;;;;;;;;19.90;54.80;;;;;;1514798;76;674;-63
2023/03/03 02:07:27;;;;;;;;;;;20.00;54.70;;;;;;1529176;76;1559;-64
2023/03/03 02:09:46;;;;;;;;;;;19.90;54.80;;;;;;1516225;76;1924;-63
2023/03/03 02:11:48;;;;;;;;;;;19.90;55.20;;;;;;1544716;76;1170;-64
2023/03/03 02:13:50;;;;;;;;;;;19.90;55.10;;;;;;1530985;76;743;-65
2023/03/03 02:15:52;;;;;;;;;;;19.90;54.90;;;;;;1532471;76;695;-64
2023/03/03 02:17:55;;;;;;;;;;;19.90;55.00;;;;;;1522146;76;723;-64
2023/03/03 02:20:01;;;;;;;;;;;19.90;55.00;;;;;;1534744;76;707;-64
2023/03/03 02:22:03;;;;;;;;;;;19.90;54.70;;;;;;1510884;76;2183;-64
2023/03/03 02:24:19;;;;;;;;;;;20.00;54.50;;;;;;1529591;76;677;-64
2023/03/03 02:26:24;;;;;;;;;;;20.00;54.40;;;;;;1540768;76;1016;-66
2023/03/03 02:28:30;;;;;;;;;;;20.00;54.30;;;;;;1539167;76;687;-64
2023/03/03 02:30:33;;;;;;;;;;;20.00;54.30;;;;;;1527911;76;1936;-64
2023/03/03 02:32:35;;;;;;;;;;;20.00;54.30;;;;;;1512916;76;2150;-64
2023/03/03 02:34:45;;;;;;;;;;;19.90;54.40;;;;;;1517865;76;666;-64
2023/03/03 02:36:47;;;;;;;;;;;20.00;54.30;;;;;;1523810;76;2058;-64
2023/03/03 02:39:07;;;;;;;;;;;20.00;54.20;;;;;;1527380;76;678;-64
2023/03/03 02:41:10;;;;;;;;;;;20.00;54.20;;;;;;1522038;76;1100;-64
2023/03/03 02:43:12;;;;;;;;;;;20.00;54.20;;;;;;1529138;76;709;-64
2023/03/03 02:45:14;;;;;;;;;;;19.90;54.30;;;;;;1524921;76;731;-64
2023/03/03 02:47:16;;;;;;;;;;;19.90;54.50;;;;;;1525475;76;665;-64
2023/03/03 02:49:19;;;;;;;;;;;19.90;54.50;;;;;;1518409;76;661;-64
2023/03/03 02:51:21;;;;;;;;;;;19.90;54.40;;;;;;1538439;76;1932;-64
2023/03/03 02:53:23;;;;;;;;;;;20.00;54.20;;;;;;1518919;76;707;-65
2023/03/03 02:55:25;;;;;;;;;;;20.00;54.20;;;;;;1527467;76;758;-65
2023/03/03 02:57:27;;;;;;;;;;;20.20;54.20;;;;;;1520481;76;737;-65
2023/03/03 02:59:29;;;;;;;;;;;20.10;54.20;;;;;;1513183;76;682;-63
2023/03/03 03:01:35;;;;;;;;;;;20.10;54.10;;;;;;1535489;76;1132;-64
2023/03/03 03:03:34;;;;;;;;;;;20.00;53.90;;;;;;1531197;76;1139;-64
2023/03/03 03:05:36;;;;;;;;;;;20.00;53.90;;;;;;1525427;76;762;-65
2023/03/03 03:07:38;;;;;;;;;;;20.00;53.90;;;;;;1530769;76;706;-67
2023/03/03 03:09:40;;;;;;;;;;;20.10;54.00;;;;;;1523255;76;1936;-63
2023/03/03 03:11:42;;;;;;;;;;;20.00;53.90;;;;;;1529982;76;1152;-64
2023/03/03 03:13:44;;;;;;;;;;;20.10;53.90;;;;;;1529496;76;669;-64
2023/03/03 03:15:46;;;;;;;;;;;20.10;54.00;;;;;;1525802;76;656;-63
2023/03/03 03:17:48;;;;;;;;;;;20.10;54.00;;;;;;1520704;76;1553;-64
2023/03/03 03:19:50;;;;;;;;;;;20.00;53.90;;;;;;1547168;76;763;-64
2023/03/03 03:21:52;;;;;;;;;;;20.10;54.00;;;;;;1529891;76;1138;-64
2023/03/03 03:23:54;;;;;;;;;;;20.10;54.00;;;;;;1517964;76;733;-64
2023/03/03 03:25:56;;;;;;;;;;;20.10;53.90;;;;;;1521140;76;760;-65
2023/03/03 03:27:58;;;;;;;;;;;20.10;53.90;;;;;;1510389;76;753;-66
2023/03/03 03:30:00;;;;;;;;;;;20.00;53.90;;;;;;1523733;76;1953;-64
2023/03/03 03:32:02;;;;;;;;;;;20.00;53.90;;;;;;1523477;76;1412;-64
2023/03/03 03:34:03;;;;;;;;;;;20.00;53.90;;;;;;1512175;76;798;-64
2023/03/03 03:36:05;;;;;;;;;;;20.10;54.10;;;;;;1518539;76;694;-65
2023/03/03 03:38:07;;;;;;;;;;;20.00;53.90;;;;;;1529381;76;769;-63
2023/03/03 03:40:10;;;;;;;;;;;20.10;54.00;;;;;;1507947;76;730;-64
2023/03/03 03:42:12;;;;;;;;;;;20.10;54.20;;;;;;1526082;76;1198;-64
2023/03/03 03:44:14;;;;;;;;;;;20.00;54.30;;;;;;1520592;76;629;-64
2023/03/03 03:46:15;;;;;;;;;;;20.00;54.20;;;;;;1521116;76;1440;-64
2023/03/03 03:48:18;;;;;;;;;;;20.00;54.20;;;;;;1516879;76;721;-64
2023/03/03 03:50:20;;;;;;;;;;;20.00;54.20;;;;;;1517013;76;1902;-64
2023/03/03 03:52:22;;;;;;;;;;;20.00;54.10;;;;;;1531100;76;1136;-66
2023/03/03 03:54:24;;;;;;;;;;;20.00;54.10;;;;;;1520286;76;674;-65
2023/03/03 03:56:26;;;;;;;;;;;20.10;54.20;;;;;;1523775;76;744;-67
2023/03/03 03:58:28;;;;;;;;;;;20.10;54.10;;;;;;1521476;76;618;-62
2023/03/03 04:00:30;;;;;;;;;;;20.10;54.20;;;;;;1518740;76;1437;-62
2023/03/03 04:02:31;;;;;;;;;;;20.10;54.10;;;;;;1512403;76;1132;-63
2023/03/03 04:04:33;;;;;;;;;;;20.10;54.20;;;;;;1527976;76;697;-63
2023/03/03 04:06:35;;;;;;;;;;;20.00;54.20;;;;;;1526340;76;798;-62
2023/03/03 04:08:37;;;;;;;;;;;20.00;54.20;;;;;;1528803;76;700;-61
2023/03/03 04:10:39;;;;;;;;;;;20.10;54.30;;;;;;1521538;76;1931;-65
2023/03/03 04:12:41;;;;;;;;;;;20.00;54.20;;;;;;1530733;76;1163;-62
2023/03/03 04:14:43;;;;;;;;;;;20.00;54.20;;;;;;1521868;76;1556;-62
2023/03/03 04:16:45;;;;;;;;;;;20.00;54.10;;;;;;1524437;76;684;-61
2023/03/03 04:18:46;;;;;;;;;;;20.00;54.10;;;;;;1528901;76;688;-61
2023/03/03 04:20:51;;;;;;;;;;;20.00;54.10;;;;;;1527373;76;1087;-61
2023/03/03 04:22:53;;;;;;;;;;;20.00;54.10;;;;;;1508633;76;569;-62
2023/03/03 04:24:55;;;;;;;;;;;20.00;54.10;;;;;;1531545;76;775;-64
2023/03/03 04:26:56;;;;;;;;;;;20.10;54.20;;;;;;1539174;76;722;-61
2023/03/03 04:28:58;;;;;;;;;;;20.00;54.10;;;;;;1534869;76;1560;-61
2023/03/03 04:31:00;;;;;;;;;;;20.10;54.20;;;;;;1526775;76;1911;-63
2023/03/03 04:33:02;;;;;;;;;;;20.00;54.10;;;;;;1528095;76;652;-63
2023/03/03 04:35:04;;;;;;;;;;;20.00;54.00;;;;;;1526491;76;763;-62
2023/03/03 04:37:06;;;;;;;;;;;20.00;54.00;;;;;;1513622;76;735;-62
2023/03/03 04:39:08;;;;;;;;;;;20.00;54.00;;;;;;1535757;76;716;-62
2023/03/03 04:41:10;;;;;;;;;;;20.10;54.10;;;;;;1513663;76;1199;-61
2023/03/03 04:43:12;;;;;;;;;;;20.00;54.00;;;;;;1513618;76;1545;-62
2023/03/03 04:45:14;;;;;;;;;;;20.00;54.10;;;;;;1514699;76;713;-63
2023/03/03 04:47:16;;;;;;;;;;;20.00;54.10;;;;;;1527432;76;686;-62
2023/03/03 04:49:18;;;;;;;;;;;20.00;54.10;;;;;;1507973;76;824;-62
2023/03/03 04:51:19;;;;;;;;;;;20.00;54.10;;;;;;1531447;76;1966;-62
2023/03/03 04:53:21;;;;;;;;;;;20.00;54.10;;;;;;1521412;76;691;-63
2023/03/03 04:55:23;;;;;;;;;;;20.00;54.00;;;;;;1529022;76;756;-61
2023/03/03 04:57:25;;;;;;;;;;;20.10;54.20;;;;;;1524905;76;1563;-61
2023/03/03 04:59:27;;;;;;;;;;;20.10;54.20;;;;;;1541646;76;673;-62
2023/03/03 05:01:29;;;;;;;;;;;20.00;54.10;;;;;;1530719;76;1117;-61
2023/03/03 05:03:31;;;;;;;;;;;20.00;54.30;;;;;;1536304;76;713;-62
2023/03/03 05:05:32;;;;;;;;;;;20.00;54.30;;;;;;1518380;76;663;-62
2023/03/03 05:07:34;;;;;;;;;;;20.00;54.20;;;;;;1526346;76;689;-63
2023/03/03 05:09:36;;;;;;;;;;;20.00;54.40;;;;;;1516849;76;678;-62
2023/03/03 05:11:38;;;;;;;;;;;20.00;54.30;;;;;;1525366;76;2244;-62
2023/03/03 05:13:40;;;;;;;;;;;20.00;54.20;;;;;;1520386;76;712;-62
2023/03/03 05:15:42;;;;;;;;;;;20.00;54.50;;;;;;1519862;76;673;-63
2023/03/03 05:17:44;;;;;;;;;;;20.00;55.00;;;;;;1524231;76;656;-64
2023/03/03 05:19:46;;;;;;;;;;;19.90;55.00;;;;;;1533941;76;793;-64
2023/03/03 05:21:47;;;;;;;;;;;19.90;55.00;;;;;;1515305;76;1158;-63
2023/03/03 05:23:49;;;;;;;;;;;19.90;55.30;;;;;;1523786;76;718;-64
2023/03/03 05:25:51;;;;;;;;;;;19.80;56.00;;;;;;1523834;76;1618;-64
2023/03/03 05:27:53;;;;;;;;;;;19.80;56.80;;;;;;1527282;76;742;-64
2023/03/03 05:29:55;;;;;;;;;;;19.70;56.50;;;;;;1512351;76;813;-61
2023/03/03 05:31:57;;;;;;;;;;;19.70;56.80;;;;;;1516966;76;1936;-62
2023/03/03 05:33:59;;;;;;;;;;;19.60;56.70;;;;;;1538372;76;754;-63
2023/03/03 05:36:01;;;;;;;;;;;19.70;56.60;;;;;;1528878;76;803;-62
2023/03/03 05:38:03;;;;;;;;;;;19.70;56.80;;;;;;1520155;76;930;-63
2023/03/03 05:40:05;;;;;;;;;;;19.70;56.60;;;;;;1514550;76;1644;-61
2023/03/03 05:42:07;;;;;;;;;;;19.80;56.60;;;;;;1513132;76;1168;-61
2023/03/03 05:44:09;;;;;;;;;;;19.70;56.50;;;;;;1499653;77;772;-63
2023/03/03 05:46:11;;;;;;;;;;;19.70;56.50;;;;;;1527089;76;694;-62
2023/03/03 05:48:13;;;;;;;;;;;19.80;56.30;;;;;;1521677;76;690;-62
2023/03/03 05:50:15;;;;;;;;;;;20.00;55.90;;;;;;1517817;76;676;-61
2023/03/03 05:52:17;;;;;;;;;;;20.00;55.70;;;;;;1524170;76;1926;-61
2023/03/03 05:54:19;;;;;;;;;;;20.00;55.50;;;;;;1513306;76;1390;-62
2023/03/03 05:56:21;;;;;;;;;;;20.10;55.40;;;;;;1524425;76;660;-62
2023/03/03 05:58:22;;;;;;;;;;;20.20;55.20;;;;;;1515256;76;671;-62
2023/03/03 06:00:24;;;;;;;;;;;20.20;55.00;;;;;;1528324;76;660;-62
2023/03/03 06:02:26;;;;;;;;;;;20.20;55.00;;;;;;1525895;76;1108;-61
2023/03/03 06:04:28;;;;;;;;;;;20.20;54.90;;;;;;1546644;76;680;-61
2023/03/03 06:06:30;;;;;;;;;;;20.20;54.80;;;;;;1520020;76;1565;-61
2023/03/03 06:08:32;;;;;;;;;;;20.20;54.70;;;;;;1516362;76;681;-60
2023/03/03 06:10:34;;;;;;;;;;;20.20;54.60;;;;;;1524519;76;730;-62
2023/03/03 06:12:37;;;;;;;;;;;20.30;54.80;;;;;;1522946;77;1953;-61
2023/03/03 06:14:39;;;;;;;;;;;20.30;54.70;;;;;;1520415;76;705;-61
2023/03/03 06:16:41;;;;;;;;;;;20.30;54.70;;;;;;1520564;76;691;-61
2023/03/03 06:18:43;;;;;;;;;;;20.30;54.50;;;;;;1524846;76;667;-61
2023/03/03 06:20:45;;;;;;;;;;;20.30;54.70;;;;;;1511273;76;1546;-62
2023/03/03 06:22:47;;;;;;;;;;;20.30;54.60;;;;;;1513695;76;701;-64
2023/03/03 06:24:49;;;;;;;;;;;20.40;54.60;;;;;;1529516;76;717;-61
2023/03/03 06:26:51;;;;;;;;;;;20.30;54.50;;;;;;1529891;76;681;-61
2023/03/03 06:28:54;;;;;;;;;;;20.30;54.50;;;;;;1526026;76;745;-61
2023/03/03 06:30:55;;;;;;;;;;;20.30;54.50;;;;;;1512846;76;1945;-61
2023/03/03 06:32:57;;;;;;;;;;;20.30;54.50;;;;;;1521963;76;700;-61
2023/03/03 06:34:59;;;;;;;;;;;20.20;54.40;;;;;;1535814;76;1541;-67
2023/03/03 06:37:01;;;;;;;;;;;20.20;54.70;;;;;;1515175;76;752;-65
2023/03/03 06:39:03;;;;;;;;;;;20.20;54.90;;;;;;1530910;76;725;-64
2023/03/03 06:41:07;;;;;;;;;;;20.30;55.00;;;;;;1523214;76;1202;-67
2023/03/03 06:43:09;;;;;;;;;;;20.30;54.80;;;;;;1520689;76;772;-64
2023/03/03 06:45:11;;;;;;;;;;;20.30;54.80;;;;;;1521629;76;751;-63
2023/03/03 06:47:13;;;;;;;;;;;20.30;54.50;;;;;;1521332;76;765;-65
2023/03/03 06:49:14;;;;;;;;;;;20.20;54.50;;;;;;1529181;76;1557;-65
2023/03/03 06:51:18;;;;;;;;;;;20.30;54.70;;;;;;1530930;76;1949;-64
2023/03/03 06:53:20;;;;;;;;;;;20.30;54.50;;;;;;1525396;76;1428;-65
2023/03/03 06:55:22;;;;;;;;;;;20.30;54.40;;;;;;1531510;76;706;-64
2023/03/03 06:57:30;;;;;;;;;;;20.40;54.30;;;;;;1531125;76;692;-64
2023/03/03 06:59:32;;;;;;;;;;;20.30;54.20;;;;;;1518262;76;679;-64
2023/03/03 07:01:35;;;;;;;;;;;20.30;54.10;;;;;;1526166;76;1159;-65
2023/03/03 07:03:37;;;;;;;;;;;20.30;54.10;;;;;;1525070;76;1418;-65
2023/03/03 07:05:39;;;;;;;;;;;20.30;53.90;;;;;;1526055;76;701;-65
2023/03/03 07:07:41;;;;;;;;;;;20.30;53.60;;;;;;1527575;76;711;-65
2023/03/03 07:09:43;;;;;;;;;;;20.30;53.60;;;;;;1523529;76;664;-65
2023/03/03 07:11:45;;;;;;;;;;;20.30;53.50;;;;;;1521760;76;1951;-65
2023/03/03 07:13:48;;;;;;;;;;;20.30;53.50;;;;;;1522243;76;735;-67
2023/03/03 07:15:50;;;;;;;;;;;20.30;53.40;;;;;;1530568;76;701;-65
2023/03/03 07:17:53;;;;;;;;;;;20.30;53.40;;;;;;1520451;76;1544;-65
2023/03/03 07:19:55;;;;;;;;;;;20.30;53.40;;;;;;1521738;76;730;-65
2023/03/03 07:21:57;;;;;;;;;;;20.30;53.40;;;;;;1522165;76;1135;-65
2023/03/03 07:23:59;;;;;;;;;;;20.30;53.40;;;;;;1527603;76;772;-65
2023/03/03 07:26:01;;;;;;;;;;;20.30;53.30;;;;;;1520618;76;755;-64
2023/03/03 07:28:21;;;;;;;;;;;20.30;53.30;;;;;;1525692;76;654;-65
2023/03/03 07:30:26;;;;;;;;;;;20.30;53.30;;;;;;1523963;76;688;-65
2023/03/03 07:32:29;;;;;;;;;;;20.20;53.20;;;;;;1524986;76;1941;-65
2023/03/03 07:34:38;;;;;;;;;;;20.20;53.20;;;;;;1525345;76;989;-65
2023/03/03 07:36:39;;;;;;;;;;;20.30;53.40;;;;;;1517039;76;779;-65
2023/03/03 07:38:42;;;;;;;;;;;20.20;53.30;;;;;;1525117;76;735;-65
2023/03/03 07:40:48;;;;;;;;;;;20.20;53.30;;;;;;1515730;76;1155;-65
2023/03/03 07:42:50;;;;;;;;;;;20.20;53.40;;;;;;1518705;76;692;-65
2023/03/03 07:44:51;;;;;;;;;;;20.20;53.40;;;;;;1518650;76;1510;-65
2023/03/03 07:46:53;;;;;;;;;;;20.20;53.40;;;;;;1513652;76;744;-65
2023/03/03 07:48:58;;;;;;;;;;;20.20;53.50;;;;;;1516242;76;766;-64
2023/03/03 07:51:02;;;;;;;;;;;20.10;53.60;;;;;;1517767;76;1111;-65
2023/03/03 07:53:06;;;;;;;;;;;20.10;53.60;;;;;;1519196;76;1937;-65
2023/03/03 07:55:15;;;;;;;;;;;20.10;53.60;;;;;;1514207;76;629;-65
2023/03/03 07:57:22;;;;;;;;;;;20.20;53.50;;;;;;1508098;76;1670;-65
2023/03/03 07:59:27;;;;;;;;;;;20.20;53.50;;;;;;1520662;76;1556;-65
2023/03/03 08:01:30;;;;;;;;;;;20.20;53.50;;;;;;1519747;76;1146;-64
2023/03/03 08:03:32;;;;;;;;;;;20.20;53.50;;;;;;1516091;76;1771;-65
2023/03/03 08:05:38;;;;;;;;;;;20.20;53.50;;;;;;1523193;76;737;-65
2023/03/03 08:07:40;;;;;;;;;;;20.20;53.40;;;;;;1525929;76;699;-66
2023/03/03 08:09:43;;;;;;;;;;;20.20;53.50;;;;;;1525297;76;652;-67
2023/03/03 08:11:46;;;;;;;;;;;20.20;53.40;;;;;;1519745;76;1945;-65
2023/03/03 08:13:48;;;;;;;;;;;20.20;53.40;;;;;;1490441;77;1583;-66
2023/03/03 08:15:51;;;;;;;;;;;20.20;53.40;;;;;;1518295;76;746;-65
2023/03/03 08:17:54;;;;;;;;;;;20.20;53.40;;;;;;1512760;76;746;-65
2023/03/03 08:19:56;;;;;;;;;;;20.20;53.40;;;;;;1515982;76;812;-65
2023/03/03 08:22:02;;;;;;;;;;;20.20;53.40;;;;;;1521095;76;1140;-65
2023/03/03 08:24:04;;;;;;;;;;;20.20;53.40;;;;;;1499989;77;693;-65
2023/03/03 08:26:06;;;;;;;;;;;20.20;53.40;;;;;;1520590;76;801;-65
2023/03/03 08:28:08;;;;;;;;;;;20.20;53.40;;;;;;1523697;76;1553;-65
2023/03/03 08:30:10;;;;;;;;;;;20.20;53.40;;;;;;1525672;76;896;-64
2023/03/03 08:32:12;;;;;;;;;;;20.10;53.60;;;;;;1528855;76;1948;-64
2023/03/03 08:34:14;;;;;;;;;;;20.10;53.80;;;;;;1530768;76;739;-64
2023/03/03 08:36:16;;;;;;;;;;;20.10;53.90;;;;;;1528223;76;794;-66
2023/03/03 08:38:18;;;;;;;;;;;20.00;54.20;;;;;;1516968;76;702;-64
2023/03/03 08:40:20;;;;;;;;;;;20.00;58.60;;;;;;1523935;76;737;-65
2023/03/03 08:42:22;;;;;;;;;;;19.90;58.60;;;;;;1519624;76;1563;-61
2023/03/03 08:44:24;;;;;;;;;;;19.90;56.70;;;;;;1524887;76;748;-61
2023/03/03 08:46:27;;;;;;;;;;;20.00;56.10;;;;;;1513153;76;677;-61
2023/03/03 08:48:29;;;;;;;;;;;20.10;55.90;;;;;;1520406;76;729;-61
2023/03/03 08:50:31;;;;;;;;;;;20.10;55.70;;;;;;1530268;76;704;-61
2023/03/03 08:52:33;;;;;;;;;;;20.10;55.50;;;;;;1535132;76;1949;-60
2023/03/03 08:54:35;;;;;;;;;;;20.20;55.40;;;;;;1514691;76;740;-61
2023/03/03 08:56:37;;;;;;;;;;;20.20;55.40;;;;;;1519225;76;1607;-62
2023/03/03 08:58:40;;;;;;;;;;;20.20;55.20;;;;;;1524573;76;791;-61
2023/03/03 09:00:42;;;;;;;;;;;20.20;55.20;;;;;;1523815;76;747;-60
2023/03/03 09:02:44;;;;;;;;;;;20.20;55.20;;;;;;1517582;76;818;-60
2023/03/03 09:04:46;;;;;;;;;;;20.30;55.20;;;;;;1523832;76;781;-60
2023/03/03 09:06:48;;;;;;;;;;;20.30;55.20;;;;;;1523085;76;686;-60
2023/03/03 09:08:50;;;;;;;;;;;20.20;55.00;;;;;;1520917;76;735;-61
2023/03/03 09:10:52;;;;;;;;;;;20.20;55.00;;;;;;1526143;76;1558;-60
2023/03/03 09:12:57;;;;;;;;;;;20.20;55.10;;;;;;1538423;76;1910;-62
2023/03/03 09:14:58;;;;;;;;;;;20.20;55.00;;;;;;1521080;76;1515;-60
2023/03/03 09:17:02;;;;;;;;;;;20.20;55.00;;;;;;1523421;76;967;-60
2023/03/03 09:19:17;;;;;;;;;;;20.20;55.00;;;;;;1522168;76;1437;-60
2023/03/03 09:21:23;;;;;;;;;;;20.30;55.10;;;;;;1486261;77;1251;-60
2023/03/03 09:23:29;;;;;;;;;;;20.30;55.10;;;;;;1526884;76;1339;-61
2023/03/03 09:25:33;;;;;;;;;;;20.20;55.00;;;;;;1526651;76;739;-60
2023/03/03 09:27:34;;;;;;;;;;;20.30;55.20;;;;;;1528084;76;719;-60
2023/03/03 09:29:37;;;;;;;;;;;20.30;55.10;;;;;;1521216;76;792;-59
2023/03/03 09:31:40;;;;;;;;;;;20.30;55.00;;;;;;1525185;76;1108;-59
2023/03/03 09:33:42;;;;;;;;;;;20.30;55.10;;;;;;1520707;76;2063;-60
2023/03/03 09:35:45;;;;;;;;;;;20.30;55.10;;;;;;1517074;76;704;-59
2023/03/03 09:37:46;;;;;;;;;;;20.30;55.00;;;;;;1519423;76;1513;-60
2023/03/03 09:39:52;;;;;;;;;;;20.30;55.00;;;;;;1529899;76;705;-60
2023/03/03 09:42:14;;;;;;;;;;;20.30;55.00;;;;;;1517530;76;1273;-60
2023/03/03 09:44:33;;;;;;;;;;;20.30;55.00;;;;;;1520241;76;1979;-60
2023/03/03 09:46:46;;;;;;;;;;;20.30;55.00;;;;;;1529356;76;704;-60
2023/03/03 09:48:50;;;;;;;;;;;20.20;54.90;;;;;;1522355;76;678;-61
2023/03/03 09:50:53;;;;;;;;;;;20.20;54.90;;;;;;1534395;76;1146;-60
2023/03/03 09:52:57;;;;;;;;;;;20.30;55.00;;;;;;1487873;76;1946;-61
2023/03/03 09:55:00;;;;;;;;;;;20.30;55.00;;;;;;1507064;76;1552;-59
2023/03/03 09:57:10;;;;;;;;;;;20.30;55.00;;;;;;1520706;76;865;-60
2023/03/03 09:59:13;;;;;;;;;;;20.30;55.00;;;;;;1528925;76;2024;-61
2023/03/03 10:01:30;;;;;;;;;;;20.30;55.00;;;;;;1524101;76;1426;-61
2023/03/03 10:03:39;;;;;;;;;;;20.30;55.00;;;;;;1477449;76;1082;-60
2023/03/03 10:05:52;;;;;;;;;;;20.30;54.90;;;;;;1519980;76;1589;-60
2023/03/03 10:08:04;;;;;;;;;;;20.30;54.90;;;;;;1516475;76;1681;-59
2023/03/03 10:10:26;;;;;;;;;;;20.30;54.90;;;;;;1525640;76;1907;-59
2023/03/03 10:12:28;;;;;;;;;;;20.30;55.00;;;;;;1523824;76;2122;-60
2023/03/03 10:14:47;;;;;;;;;;;20.20;55.20;;;;;;1520236;76;722;-59
2023/03/03 10:16:50;;;;;;;;;;;20.10;55.10;;;;;;1527323;76;1871;-59
2023/03/03 10:19:00;;;;;;;;;;;20.20;54.90;;;;;;1519568;76;1434;-59
2023/03/03 10:21:03;;;;;;;;;;;20.20;54.70;;;;;;1520344;76;1629;-59
2023/03/03 10:23:07;;;;;;;;;;;20.30;54.70;;;;;;1514674;76;627;-59
2023/03/03 10:25:11;;;;;;;;;;;20.30;54.50;;;;;;1534002;76;740;-59
2023/03/03 10:27:17;;;;;;;;;;;20.30;54.50;;;;;;1522970;76;1421;-59
2023/03/03 10:29:21;;;;;;;;;;;20.30;54.40;;;;;;1518136;76;691;-58
2023/03/03 10:31:33;;;;;;;;;;;20.30;54.40;;;;;;1512022;76;1159;-60
2023/03/03 10:33:40;;;;;;;;;;;20.30;54.30;;;;;;1518348;76;1952;-59
2023/03/03 10:35:52;;;;;;;;;;;20.30;54.30;;;;;;1517491;76;687;-60
2023/03/03 10:38:13;;;;;;;;;;;20.30;54.40;;;;;;1524719;76;1385;-59
2023/03/03 10:40:23;;;;;;;;;;;20.20;54.20;;;;;;1523337;76;980;-60
2023/03/03 10:42:38;;;;;;;;;;;20.30;54.30;;;;;;1528818;76;1151;-60
2023/03/03 10:45:00;;;;;;;;;;;20.30;54.20;;;;;;1517280;76;2016;-59
2023/03/03 10:47:18;;;;;;;;;;;20.30;54.30;;;;;;1518065;76;741;-59
2023/03/03 10:49:25;;;;;;;;;;;20.30;54.20;;;;;;1520177;76;1918;-60
2023/03/03 10:51:28;;;;;;;;;;;20.30;54.30;;;;;;1526098;76;1165;-59
2023/03/03 10:53:31;;;;;;;;;;;20.30;54.30;;;;;;1524011;76;1965;-62
2023/03/03 10:55:44;;;;;;;;;;;20.30;54.30;;;;;;1523558;76;831;-62
2023/03/03 10:58:00;;;;;;;;;;;20.20;54.20;;;;;;1523510;76;1956;-63
2023/03/03 11:00:15;;;;;;;;;;;20.10;54.80;;;;;;1529000;76;1999;-64
2023/03/03 11:02:25;;;;;;;;;;;20.00;55.20;;;;;;1518416;76;1795;-62
2023/03/03 11:04:28;;;;;;;;;;;20.00;55.20;;;;;;1524829;76;2108;-61
2023/03/03 11:06:41;;;;;;;;;;;20.00;55.40;;;;;;1524990;76;772;-62
2023/03/03 11:08:43;;;;;;;;;;;20.00;55.70;;;;;;1519230;76;698;-62
2023/03/03 11:11:04;;;;;;;;;;;20.00;56.00;;;;;;1524358;76;1169;-64
2023/03/03 11:13:10;;;;;;;;;;;20.10;56.30;;;;;;1518588;76;1929;-62
2023/03/03 11:15:17;;;;;;;;;;;19.90;57.10;;;;;;1528168;76;1618;-61
2023/03/03 11:17:26;;;;;;;;;;;20.00;57.10;;;;;;1522727;76;1907;-61
2023/03/03 11:19:36;;;;;;;;;;;19.90;57.00;;;;;;1518215;76;749;-64
2023/03/03 11:21:39;;;;;;;;;;;19.90;57.00;;;;;;1522264;76;1147;-64
2023/03/03 11:23:46;;;;;;;;;;;20.00;57.00;;;;;;1526540;76;1875;-64
2023/03/03 11:25:56;;;;;;;;;;;20.00;56.90;;;;;;1534089;76;805;-64
2023/03/03 11:28:16;;;;;;;;;;;20.00;57.00;;;;;;1522772;76;1874;-65
2023/03/03 11:30:19;;;;;;;;;;;20.00;56.90;;;;;;1517518;76;1537;-64
2023/03/03 11:32:23;;;;;;;;;;;20.00;56.90;;;;;;1524439;76;1839;-65
2023/03/03 11:34:32;;;;;;;;;;;20.00;56.90;;;;;;1524816;76;1944;-64
2023/03/03 11:36:36;;;;;;;;;;;20.00;56.80;;;;;;1524375;76;744;-64
2023/03/03 11:38:42;;;;;;;;;;;20.00;56.70;;;;;;1544664;76;797;-64
2023/03/03 11:40:58;;;;;;;;;;;20.00;56.70;;;;;;1542034;76;1556;-66
2023/03/03 11:43:07;;;;;;;;;;;20.00;56.70;;;;;;1526336;76;1823;-64
2023/03/03 11:45:11;;;;;;;;;;;20.00;56.50;;;;;;1510544;76;1862;-62
2023/03/03 11:47:22;;;;;;;;;;;20.10;56.60;;;;;;1526459;76;1764;-62
2023/03/03 11:49:34;;;;;;;;;;;20.00;56.50;;;;;;1522810;76;728;-63
2023/03/03 11:51:38;;;;;;;;;;;20.10;56.60;;;;;;1521015;76;1958;-63
2023/03/03 11:53:51;;;;;;;;;;;20.10;56.50;;;;;;1522315;76;1945;-62
2023/03/03 11:55:54;;;;;;;;;;;20.10;56.50;;;;;;1523652;76;693;-61
2023/03/03 11:58:14;;;;;;;;;;;20.00;56.30;;;;;;1527678;76;1915;-62
2023/03/03 12:00:36;;;;;;;;;;;20.10;56.40;;;;;;1530133;76;682;-62
2023/03/03 12:02:46;;;;;;;;;;;20.10;56.40;;;;;;1520163;76;1178;-62
2023/03/03 12:04:49;;;;;;;;;;;20.10;56.40;;;;;;1531043;76;812;-62
2023/03/03 12:07:01;;;;;;;;;;;20.10;56.50;;;;;;1529096;76;776;-62
2023/03/03 12:09:09;;;;;;;;;;;20.10;56.50;;;;;;1524334;76;1771;-61
2023/03/03 12:11:25;;;;;;;;;;;20.10;56.40;;;;;;1530230;76;1143;-61
2023/03/03 12:13:31;;;;;;;;;;;20.10;56.50;;;;;;1529449;76;1956;-61
2023/03/03 12:15:38;;;;;;;;;;;20.00;56.70;;;;;;1522330;76;1033;-64
2023/03/03 12:17:44;;;;;;;;;;;20.10;56.60;;;;;;1514145;76;718;-62